Time;durP1;ratioP1;P1;durP2;ratioP2;P2;SDS_P1;SDS_P2;PMS_P1;PMS_P2;Temp;Humidity;BMP_temperature;BMP_pressure;BME280_temperature;BME280_humidity;BME280_pressure;Samples;Min_cycle;Max_cycle;Signal;HPM_P1;HPM_P2
2021/11/04 00:00:43;;;;;;;27.17;12.68;;;7.10;99.90;;;;;;5073753;28;20473;-91
2021/11/04 00:03:09;;;;;;;33.15;14.70;;;7.10;99.90;;;;;;5057529;28;20041;-92
2021/11/04 00:05:38;;;;;;;25.67;13.82;;;7.10;99.90;;;;;;5080902;28;20036;-93
2021/11/04 00:08:16;;;;;;;23.27;12.45;;;7.10;99.90;;;;;;5042953;28;20403;-91
2021/11/04 00:10:42;;;;;;;31.02;14.73;;;7.10;99.90;;;;;;5071338;28;20044;-91
2021/11/04 00:13:15;;;;;;;28.08;14.40;;;7.10;99.90;;;;;;5075364;28;20530;-91
2021/11/04 00:15:42;;;;;;;31.75;14.57;;;7.10;99.90;;;;;;5078743;28;20131;-91
2021/11/04 00:18:15;;;;;;;27.58;14.07;;;7.10;99.90;;;;;;5055873;28;20059;-91
2021/11/04 00:20:44;;;;;;;39.50;15.60;;;7.10;99.90;;;;;;5080555;28;20110;-92
2021/11/04 00:23:15;;;;;;;39.92;15.43;;;7.10;99.90;;;;;;5097073;28;20119;-91
2021/11/04 00:25:42;;;;;;;28.85;14.15;;;7.10;99.90;;;;;;5067350;28;20056;-91
2021/11/04 00:28:10;;;;;;;29.27;14.02;;;7.10;99.90;;;;;;5067855;28;20032;-91
2021/11/04 00:30:37;;;;;;;30.00;13.85;;;7.10;99.90;;;;;;5102103;28;20484;-91
2021/11/04 00:33:05;;;;;;;27.52;13.82;;;7.10;99.90;;;;;;5098090;28;20044;-91
2021/11/04 00:35:31;;;;;;;28.98;15.07;;;7.10;99.90;;;;;;5078810;28;20133;-91
2021/11/04 00:38:04;;;;;;;30.02;14.15;;;7.10;99.90;;;;;;5079064;28;20036;-92
2021/11/04 00:40:38;;;;;;;29.52;14.23;;;7.10;99.90;;;;;;5096999;28;20036;-92
2021/11/04 00:43:08;;;;;;;29.95;14.32;;;7.10;99.90;;;;;;5059655;28;20056;-91
2021/11/04 00:45:34;;;;;;;28.17;14.35;;;7.00;99.90;;;;;;5061979;28;20036;-92
2021/11/04 00:48:00;;;;;;;28.70;14.95;;;7.00;99.90;;;;;;5055376;28;20036;-92
2021/11/04 00:50:27;;;;;;;26.48;15.10;;;7.00;99.90;;;;;;5072817;28;20510;-91
2021/11/04 00:52:54;;;;;;;32.28;15.73;;;6.90;99.90;;;;;;5071813;28;20506;-92
2021/11/04 00:55:19;;;;;;;31.15;17.25;;;6.90;99.90;;;;;;5059335;28;20047;-93
2021/11/04 00:57:48;;;;;;;34.60;16.42;;;6.90;99.90;;;;;;5079160;28;20491;-91
2021/11/04 01:00:14;;;;;;;36.20;16.60;;;6.90;99.90;;;;;;5070754;28;20063;-92
2021/11/04 01:02:41;;;;;;;36.40;16.90;;;6.80;99.90;;;;;;5058740;28;20094;-91
2021/11/04 01:05:08;;;;;;;46.03;17.13;;;6.80;99.90;;;;;;5056447;28;20044;-92
2021/11/04 01:07:35;;;;;;;47.50;18.70;;;6.80;99.90;;;;;;5079037;28;20025;-92
2021/11/04 01:10:04;;;;;;;38.95;20.13;;;6.80;99.90;;;;;;5095857;28;20032;-92
2021/11/04 01:12:32;;;;;;;30.52;17.08;;;6.70;99.90;;;;;;5096531;28;20097;-90
2021/11/04 01:14:59;;;;;;;32.63;17.10;;;6.70;99.90;;;;;;5078539;28;20036;-90
2021/11/04 01:17:28;;;;;;;47.72;19.42;;;6.70;99.90;;;;;;5057984;28;20040;-90
2021/11/04 01:19:55;;;;;;;38.05;18.08;;;6.80;99.90;;;;;;5064674;28;20036;-92
2021/11/04 01:22:21;;;;;;;41.45;17.95;;;6.70;99.90;;;;;;5078899;28;20032;-90
2021/11/04 01:24:48;;;;;;;32.53;16.55;;;6.70;99.90;;;;;;5096425;28;20024;-90
2021/11/04 01:27:14;;;;;;;34.10;16.52;;;6.70;99.90;;;;;;5078784;28;20075;-90
2021/11/04 01:29:40;;;;;;;30.15;16.83;;;6.70;99.90;;;;;;5069310;28;20035;-90
2021/11/04 01:32:08;;;;;;;32.25;18.20;;;6.70;99.90;;;;;;5095706;28;20118;-90
2021/11/04 01:34:34;;;;;;;36.75;18.30;;;6.70;99.90;;;;;;5078602;28;20411;-90
2021/11/04 01:37:01;;;;;;;29.48;17.17;;;6.70;99.90;;;;;;5096254;28;20042;-91
2021/11/04 01:39:27;;;;;;;33.92;18.60;;;6.70;99.90;;;;;;5078363;28;20464;-91
2021/11/04 01:41:58;;;;;;;35.45;17.40;;;6.60;99.90;;;;;;5078136;28;20052;-90
2021/11/04 01:44:27;;;;;;;27.75;17.40;;;6.60;99.90;;;;;;5062052;28;20469;-91
2021/11/04 01:46:55;;;;;;;28.42;16.45;;;6.60;99.90;;;;;;5074577;28;20036;-91
2021/11/04 01:49:22;;;;;;;31.45;17.42;;;6.60;99.90;;;;;;5056419;28;20036;-91
2021/11/04 01:51:48;;;;;;;26.83;15.52;;;6.60;99.90;;;;;;5059984;28;20599;-91
2021/11/04 01:54:14;;;;;;;35.33;18.10;;;6.70;99.90;;;;;;5077908;28;20031;-92
2021/11/04 01:56:41;;;;;;;34.60;16.48;;;6.70;99.90;;;;;;5094929;28;20024;-91
2021/11/04 01:59:10;;;;;;;29.05;16.30;;;6.70;99.90;;;;;;5076961;28;20090;-91
2021/11/04 02:01:36;;;;;;;28.45;16.52;;;6.70;99.90;;;;;;5060707;28;20037;-90
2021/11/04 02:04:05;;;;;;;31.30;17.95;;;6.70;99.90;;;;;;5076916;28;20040;-91
2021/11/04 02:06:42;;;;;;;30.63;18.48;;;6.70;99.90;;;;;;5077147;28;20024;-90
2021/11/04 02:09:22;;;;;;;27.00;16.88;;;6.70;99.90;;;;;;5073274;28;20032;-91
2021/11/04 02:12:18;;;;;;;28.90;17.20;;;6.70;99.90;;;;;;5076678;28;20052;-91
2021/11/04 02:14:48;;;;;;;33.95;17.63;;;6.80;99.90;;;;;;5013293;28;20041;-89
2021/11/04 02:17:17;;;;;;;26.27;16.10;;;6.80;99.90;;;;;;5016345;28;20037;-92
2021/11/04 02:19:52;;;;;;;27.80;15.95;;;6.80;99.90;;;;;;5022059;28;20397;-91
2021/11/04 02:22:27;;;;;;;27.02;15.15;;;6.80;99.90;;;;;;5023219;28;20124;-91
2021/11/04 02:25:24;;;;;;;30.48;15.98;;;6.80;99.90;;;;;;5030774;28;20044;-90
2021/11/04 02:27:52;;;;;;;33.55;17.60;;;6.80;99.90;;;;;;5074963;28;20067;-90
2021/11/04 02:30:21;;;;;;;29.08;17.17;;;6.70;99.90;;;;;;5075482;28;20177;-91
2021/11/04 02:32:47;;;;;;;33.83;17.45;;;6.70;99.90;;;;;;5076355;28;20035;-90
2021/11/04 02:35:16;;;;;;;30.88;18.67;;;6.70;99.90;;;;;;5076473;28;20039;-90
2021/11/04 02:37:49;;;;;;;31.67;17.30;;;6.70;99.90;;;;;;5075143;28;20085;-90
2021/11/04 02:40:25;;;;;;;30.65;17.23;;;6.70;99.90;;;;;;5091789;28;20115;-89
2021/11/04 02:42:52;;;;;;;31.05;18.55;;;6.70;99.90;;;;;;5075692;28;20097;-93
2021/11/04 02:45:25;;;;;;;30.90;17.88;;;6.70;99.90;;;;;;5076183;28;20024;-91
2021/11/04 02:47:51;;;;;;;;;;;6.70;99.90;;;;;;5058537;28;20037;-90
2021/11/04 02:50:19;;;;;;;27.30;16.10;;;6.70;99.90;;;;;;5093733;28;19904;-90
2021/11/04 02:52:48;;;;;;;30.50;15.80;;;6.70;99.90;;;;;;5093627;28;20436;-90
2021/11/04 02:55:19;;;;;;;30.98;16.55;;;6.70;99.90;;;;;;5075582;28;20020;-90
2021/11/04 02:57:49;;;;;;;31.23;18.15;;;6.80;99.90;;;;;;5067662;28;20044;-90
2021/11/04 03:00:18;;;;;;;29.55;17.48;;;6.80;99.90;;;;;;5058902;28;20031;-91
2021/11/04 03:02:45;;;;;;;33.15;18.70;;;6.80;99.90;;;;;;5072086;28;20036;-91
2021/11/04 03:05:13;;;;;;;34.50;19.02;;;6.80;99.90;;;;;;5075553;28;20040;-92
2021/11/04 03:07:39;;;;;;;34.60;19.27;;;6.90;99.90;;;;;;5075393;28;20499;-91
2021/11/04 03:10:07;;;;;;;36.78;19.55;;;6.90;99.90;;;;;;5075614;28;20055;-92
2021/11/04 03:12:33;;;;;;;37.08;21.42;;;6.90;99.90;;;;;;5075811;28;20110;-91
2021/11/04 03:15:01;;;;;;;34.20;19.58;;;6.90;99.90;;;;;;5075968;28;20047;-91
2021/11/04 03:17:30;;;;;;;35.53;20.75;;;6.90;99.90;;;;;;5094044;28;20036;-91
2021/11/04 03:19:57;;;;;;;51.40;24.92;;;7.00;99.90;;;;;;5094257;28;20016;-91
2021/11/04 03:22:24;;;;;;;42.83;22.05;;;7.00;99.90;;;;;;5075882;28;20040;-91
2021/11/04 03:24:51;;;;;;;43.50;23.20;;;7.00;99.90;;;;;;5075680;28;20115;-91
2021/11/04 03:27:17;;;;;;;43.33;24.13;;;7.00;99.90;;;;;;5075773;28;20039;-91
2021/11/04 03:29:44;;;;;;;44.67;25.45;;;7.00;99.90;;;;;;5075548;28;20519;-91
2021/11/04 03:32:16;;;;;;;44.50;23.88;;;7.00;99.90;;;;;;5075244;28;20494;-90
2021/11/04 03:34:44;;;;;;;43.65;22.85;;;7.00;99.90;;;;;;5094261;28;20472;-91
2021/11/04 03:37:15;;;;;;;42.70;24.10;;;7.00;99.90;;;;;;5076157;28;20476;-91
2021/11/04 03:39:43;;;;;;;41.22;21.95;;;7.00;99.90;;;;;;5076331;28;20032;-91
2021/11/04 03:42:14;;;;;;;42.50;22.90;;;7.00;99.90;;;;;;5092850;28;20083;-91
2021/11/04 03:44:41;;;;;;;47.08;22.55;;;7.00;99.90;;;;;;5057301;28;20044;-92
2021/11/04 03:47:10;;;;;;;38.60;21.33;;;7.00;99.90;;;;;;5073567;28;20123;-90
2021/11/04 03:49:37;;;;;;;41.42;22.60;;;7.00;99.90;;;;;;5075555;28;20028;-91
2021/11/04 03:52:05;;;;;;;41.15;22.38;;;6.90;99.90;;;;;;5075963;28;20040;-90
2021/11/04 03:54:32;;;;;;;43.72;22.98;;;6.90;99.90;;;;;;5077951;28;20082;-91
2021/11/04 03:56:58;;;;;;;39.33;21.70;;;6.90;99.90;;;;;;5080257;28;20119;-91
2021/11/04 03:59:25;;;;;;;37.45;20.08;;;7.00;99.90;;;;;;5079443;28;20044;-91
2021/11/04 04:01:52;;;;;;;37.95;22.38;;;6.90;99.90;;;;;;5098272;28;20062;-91
2021/11/04 04:04:19;;;;;;;49.58;27.60;;;6.90;99.90;;;;;;5063629;28;20035;-91
2021/11/04 04:06:53;;;;;;;44.78;25.48;;;6.90;99.90;;;;;;5079904;28;20038;-90
2021/11/04 04:09:22;;;;;;;48.35;27.42;;;6.90;99.90;;;;;;5097964;28;20413;-90
2021/11/04 04:11:50;;;;;;;45.00;25.60;;;6.90;99.90;;;;;;5079942;28;20052;-91
2021/11/04 04:14:19;;;;;;;43.03;24.40;;;6.90;99.90;;;;;;5098041;28;20058;-90
2021/11/04 04:16:45;;;;;;;39.42;23.92;;;6.90;99.90;;;;;;5080081;28;20057;-90
2021/11/04 04:19:12;;;;;;;37.05;22.05;;;6.90;99.90;;;;;;5080715;28;20024;-90
2021/11/04 04:21:39;;;;;;;41.00;24.63;;;6.80;99.90;;;;;;5059574;28;20036;-89
2021/11/04 04:24:06;;;;;;;37.50;21.60;;;6.80;99.90;;;;;;5077490;28;20032;-89
2021/11/04 04:26:34;;;;;;;34.70;21.83;;;6.80;99.90;;;;;;5059780;28;20059;-91
2021/11/04 04:28:59;;;;;;;34.63;20.98;;;6.90;99.90;;;;;;5075405;28;20044;-90
2021/11/04 04:31:26;;;;;;;31.52;19.50;;;6.90;99.90;;;;;;5081196;28;20063;-90
2021/11/04 04:33:52;;;;;;;33.33;20.55;;;6.90;99.90;;;;;;5080013;28;20028;-91
2021/11/04 04:36:20;;;;;;;35.90;23.38;;;6.90;99.90;;;;;;5079272;28;20062;-91
2021/11/04 04:38:47;;;;;;;34.83;20.63;;;6.80;99.90;;;;;;5079385;28;20028;-90
2021/11/04 04:41:14;;;;;;;32.50;20.67;;;6.80;99.90;;;;;;5078530;28;20037;-90
2021/11/04 04:43:40;;;;;;;33.88;20.55;;;6.90;99.90;;;;;;5061607;28;20051;-90
2021/11/04 04:46:06;;;;;;;32.80;19.58;;;6.80;99.90;;;;;;5061964;28;20131;-89
2021/11/04 04:48:32;;;;;;;36.40;22.20;;;6.90;99.90;;;;;;5097113;28;20075;-89
2021/11/04 04:50:58;;;;;;;31.55;20.00;;;6.80;99.90;;;;;;5096951;28;20047;-89
2021/11/04 04:53:25;;;;;;;37.35;22.33;;;6.80;99.90;;;;;;5062604;28;20040;-89
2021/11/04 04:55:57;;;;;;;34.22;21.45;;;6.80;99.90;;;;;;5079441;28;20070;-89
2021/11/04 04:58:23;;;;;;;38.45;23.90;;;6.80;99.90;;;;;;5079062;28;20089;-89
2021/11/04 05:00:50;;;;;;;39.40;23.38;;;6.80;99.90;;;;;;5079327;28;20032;-89
2021/11/04 05:03:16;;;;;;;36.53;22.10;;;6.80;99.90;;;;;;5076460;28;20040;-89
2021/11/04 05:05:42;;;;;;;35.63;21.40;;;6.70;99.90;;;;;;5078752;28;20510;-89
2021/11/04 05:08:20;;;;;;;42.63;23.52;;;6.80;99.90;;;;;;5078283;28;20029;-89
2021/11/04 05:10:46;;;;;;;37.05;21.98;;;6.80;99.90;;;;;;5078914;28;20064;-89
2021/11/04 05:13:12;;;;;;;38.22;22.92;;;6.80;99.90;;;;;;5078266;28;20149;-89
2021/11/04 05:15:39;;;;;;;37.17;22.98;;;6.90;99.90;;;;;;5038400;28;20033;-89
2021/11/04 05:18:08;;;;;;;37.58;24.52;;;6.90;99.90;;;;;;5038768;28;20039;-89
2021/11/04 05:20:38;;;;;;;37.63;23.67;;;6.80;99.90;;;;;;5056340;28;20054;-91
2021/11/04 05:23:05;;;;;;;39.45;25.38;;;6.80;99.90;;;;;;5053266;28;20036;-89
2021/11/04 05:25:31;;;;;;;37.38;24.27;;;6.80;99.90;;;;;;5060774;28;20119;-90
2021/11/04 05:27:57;;;;;;;40.90;25.38;;;6.80;99.90;;;;;;5072232;28;20079;-89
2021/11/04 05:30:22;;;;;;;34.92;23.95;;;6.70;99.90;;;;;;5057924;28;20036;-89
2021/11/04 05:32:48;;;;;;;38.92;24.73;;;6.70;99.90;;;;;;5057554;28;20098;-89
2021/11/04 05:35:17;;;;;;;35.67;24.80;;;6.70;99.90;;;;;;5057087;28;20089;-89
2021/11/04 05:37:47;;;;;;;37.38;24.33;;;6.70;99.90;;;;;;5079035;28;20031;-89
2021/11/04 05:40:14;;;;;;;32.80;22.05;;;6.70;99.90;;;;;;5070295;28;20434;-89
2021/11/04 05:42:41;;;;;;;33.65;22.58;;;6.70;99.90;;;;;;5064970;28;20037;-88
2021/11/04 05:45:08;;;;;;;31.63;21.25;;;6.70;99.90;;;;;;5067537;28;20029;-89
2021/11/04 05:47:34;;;;;;;33.17;22.20;;;6.70;99.90;;;;;;5056223;28;20028;-90
2021/11/04 05:50:00;;;;;;;32.85;22.90;;;6.70;99.90;;;;;;5062072;28;20036;-90
2021/11/04 05:52:26;;;;;;;28.35;19.25;;;6.70;99.90;;;;;;5083103;28;20495;-89
2021/11/04 05:54:54;;;;;;;27.33;18.85;;;6.70;99.90;;;;;;5069909;28;20039;-89
2021/11/04 05:57:20;;;;;;;30.80;20.38;;;6.70;99.90;;;;;;5057558;28;20032;-89
2021/11/04 05:59:46;;;;;;;26.70;18.73;;;6.70;99.90;;;;;;5060675;28;20553;-89
2021/11/04 06:02:14;;;;;;;27.83;19.10;;;6.70;99.90;;;;;;5085163;28;20488;-90
2021/11/04 06:04:45;;;;;;;28.13;17.75;;;6.70;99.90;;;;;;5085431;28;20486;-89
2021/11/04 06:07:13;;;;;;;24.98;17.42;;;6.70;99.90;;;;;;5077094;28;20051;-89
2021/11/04 06:09:42;;;;;;;30.45;19.02;;;6.70;99.90;;;;;;5039914;28;20465;-90
2021/11/04 06:12:09;;;;;;;34.00;19.55;;;6.60;99.90;;;;;;5064085;28;20036;-89
2021/11/04 06:14:35;;;;;;;38.58;20.58;;;6.60;99.90;;;;;;5065972;28;20391;-89
2021/11/04 06:17:02;;;;;;;27.95;19.45;;;6.60;99.90;;;;;;5056097;28;20084;-90
2021/11/04 06:19:29;;;;;;;28.10;18.65;;;6.60;99.90;;;;;;5056683;28;20025;-89
2021/11/04 06:21:56;;;;;;;52.33;21.63;;;6.60;99.90;;;;;;5081065;28;20069;-89
2021/11/04 06:24:23;;;;;;;42.70;22.33;;;6.60;99.90;;;;;;5067666;28;20597;-90
2021/11/04 06:26:53;;;;;;;35.70;21.13;;;6.60;99.90;;;;;;5070595;28;20024;-90
2021/11/04 06:29:19;;;;;;;30.55;19.17;;;6.50;99.90;;;;;;5059850;28;20169;-90
2021/11/04 06:31:45;;;;;;;30.00;17.98;;;6.50;99.90;;;;;;5056330;28;20535;-90
2021/11/04 06:34:14;;;;;;;30.00;19.50;;;6.50;99.90;;;;;;5056749;28;20123;-91
2021/11/04 06:36:41;;;;;;;29.58;19.45;;;6.50;99.90;;;;;;5068740;28;20035;-90
2021/11/04 06:39:08;;;;;;;32.63;18.80;;;6.50;99.90;;;;;;5061325;28;20024;-90
2021/11/04 06:41:37;;;;;;;34.70;20.27;;;6.50;99.90;;;;;;5090194;28;20029;-91
2021/11/04 06:44:04;;;;;;;43.35;20.25;;;6.60;99.90;;;;;;5063425;28;20059;-90
2021/11/04 06:46:32;;;;;;;35.95;20.13;;;6.50;99.90;;;;;;5066192;28;20032;-91
2021/11/04 06:49:05;;;;;;;33.85;21.13;;;6.50;99.90;;;;;;5089787;28;20028;-90
2021/11/04 06:51:37;;;;;;;38.75;19.35;;;6.50;99.90;;;;;;5059847;28;20557;-91
2021/11/04 06:54:10;;;;;;;34.78;18.55;;;6.50;99.90;;;;;;5070038;28;20043;-90
2021/11/04 06:56:40;;;;;;;33.63;19.83;;;6.50;99.90;;;;;;5051446;28;20040;-90
2021/11/04 06:59:32;;;;;;;28.70;18.13;;;6.50;99.90;;;;;;5060407;28;20032;-90
2021/11/04 07:02:00;;;;;;;28.75;17.48;;;6.50;99.90;;;;;;5042011;28;20048;-90
2021/11/04 07:04:42;;;;;;;32.67;17.17;;;6.50;99.90;;;;;;5074682;28;20043;-89
2021/11/04 07:07:12;;;;;;;42.42;18.83;;;6.50;99.90;;;;;;5056646;28;20119;-89
2021/11/04 07:09:41;;;;;;;43.33;20.55;;;6.40;99.90;;;;;;5056709;28;20032;-89
2021/11/04 07:12:11;;;;;;;33.00;18.67;;;6.50;99.90;;;;;;5081725;28;20169;-90
2021/11/04 07:14:42;;;;;;;34.90;17.95;;;6.40;99.90;;;;;;5064899;28;20039;-90
2021/11/04 07:17:13;;;;;;;24.50;16.42;;;6.40;99.90;;;;;;5039580;28;20044;-90
2021/11/04 07:19:42;;;;;;;;;;;6.40;99.90;;;;;;5055336;28;20048;-90
2021/11/04 07:22:37;;;;;;;23.17;15.20;;;6.40;99.90;;;;;;5036551;28;19913;-90
2021/11/04 07:25:15;;;;;;;25.25;14.90;;;6.40;99.90;;;;;;5044220;28;20124;-90
2021/11/04 07:28:10;;;;;;;24.92;14.90;;;6.50;99.90;;;;;;5061939;28;20081;-90
2021/11/04 07:30:37;;;;;;;25.67;15.05;;;6.50;99.90;;;;;;5077416;28;20073;-90
2021/11/04 07:33:07;;;;;;;21.02;13.90;;;6.60;99.90;;;;;;5079534;28;20041;-90
2021/11/04 07:35:44;;;;;;;28.52;14.85;;;6.60;99.90;;;;;;5091088;28;20020;-90
2021/11/04 07:38:14;;;;;;;23.52;13.35;;;6.60;99.90;;;;;;5055969;28;20036;-89
2021/11/04 07:40:48;;;;;;;24.73;12.82;;;6.70;99.90;;;;;;5087083;28;20376;-89
2021/11/04 07:43:19;;;;;;;32.22;15.30;;;6.70;99.90;;;;;;5077184;28;20044;-90
2021/11/04 07:45:46;;;;;;;28.38;15.40;;;6.70;99.90;;;;;;5071890;28;20515;-90
2021/11/04 07:48:12;;;;;;;29.58;15.55;;;6.70;99.90;;;;;;5039291;28;20100;-90
2021/11/04 07:50:38;;;;;;;29.48;16.05;;;6.70;99.90;;;;;;5055820;28;20025;-90
2021/11/04 07:53:04;;;;;;;31.00;17.25;;;6.70;99.90;;;;;;5071944;28;20126;-89
2021/11/04 07:55:30;;;;;;;31.40;17.33;;;6.70;99.90;;;;;;5072769;28;20479;-89
2021/11/04 07:57:59;;;;;;;32.55;17.88;;;6.70;99.90;;;;;;5055274;28;20032;-90
2021/11/04 08:00:29;;;;;;;29.40;17.40;;;6.70;99.90;;;;;;5055351;28;20064;-91
2021/11/04 08:02:59;;;;;;;27.05;18.83;;;6.70;99.90;;;;;;5069469;28;20074;-91
2021/11/04 08:05:27;;;;;;;26.60;18.45;;;6.70;99.90;;;;;;5090555;28;20036;-90
2021/11/04 08:07:56;;;;;;;31.52;19.23;;;6.70;99.90;;;;;;5061604;28;20052;-90
2021/11/04 08:10:23;;;;;;;35.20;20.73;;;6.70;99.90;;;;;;5094176;28;20024;-91
2021/11/04 08:12:59;;;;;;;30.75;18.45;;;6.80;99.90;;;;;;5075363;28;20047;-90
2021/11/04 08:15:30;;;;;;;31.05;19.30;;;6.80;99.90;;;;;;5075978;28;20551;-91
2021/11/04 08:17:59;;;;;;;30.48;18.40;;;7.00;99.90;;;;;;5075399;28;20039;-90
2021/11/04 08:20:26;;;;;;;30.58;19.33;;;7.10;99.90;;;;;;5093891;28;20046;-91
2021/11/04 08:23:02;;;;;;;26.27;17.63;;;7.20;99.90;;;;;;5076104;28;20033;-91
2021/11/04 08:25:29;;;;;;;34.25;21.13;;;7.30;99.90;;;;;;5077395;28;20123;-89
2021/11/04 08:27:55;;;;;;;30.25;20.52;;;7.30;99.90;;;;;;5070214;28;20093;-90
2021/11/04 08:30:27;;;;;;;30.38;19.77;;;7.30;99.90;;;;;;5077527;28;20029;-89
2021/11/04 08:32:58;;;;;;;31.95;20.63;;;7.30;99.90;;;;;;5058654;28;20511;-89
2021/11/04 08:35:24;;;;;;;32.58;22.15;;;7.30;99.90;;;;;;5041937;28;20036;-91
2021/11/04 08:37:52;;;;;;;30.67;21.70;;;7.30;99.90;;;;;;5089612;28;20083;-89
2021/11/04 08:40:18;;;;;;;28.17;20.17;;;7.40;99.90;;;;;;5066118;28;20036;-89
2021/11/04 08:42:45;;;;;;;32.10;21.75;;;7.40;99.90;;;;;;5084455;28;20124;-91
2021/11/04 08:45:12;;;;;;;28.85;18.33;;;7.40;99.90;;;;;;5074842;28;20043;-89
2021/11/04 08:47:39;;;;;;;28.23;19.45;;;7.40;99.90;;;;;;5044880;28;20028;-89
2021/11/04 08:50:16;;;;;;;30.73;21.05;;;7.40;99.90;;;;;;5060284;28;20036;-89
2021/11/04 08:52:43;;;;;;;30.25;20.98;;;7.40;99.90;;;;;;5089457;28;20028;-90
2021/11/04 08:55:13;;;;;;;28.48;19.42;;;7.50;99.90;;;;;;5062913;28;20029;-89
2021/11/04 08:57:40;;;;;;;36.60;24.00;;;7.50;99.90;;;;;;5060438;28;20024;-89
2021/11/04 09:00:09;;;;;;;34.58;23.27;;;7.50;99.90;;;;;;5083764;28;20046;-89
2021/11/04 09:02:42;;;;;;;31.23;23.33;;;7.40;99.90;;;;;;5066986;28;20105;-89
2021/11/04 09:05:09;;;;;;;36.10;25.35;;;7.40;99.90;;;;;;5042898;28;20036;-90
2021/11/04 09:07:41;;;;;;;36.05;24.92;;;7.40;99.90;;;;;;5075461;28;20499;-90
2021/11/04 09:10:09;;;;;;;34.38;23.83;;;7.40;99.90;;;;;;5067185;28;20475;-90
2021/11/04 09:12:39;;;;;;;36.03;24.83;;;7.40;99.90;;;;;;5087565;28;20074;-90
2021/11/04 09:15:09;;;;;;;33.83;23.00;;;7.40;99.90;;;;;;5066476;28;20040;-88
2021/11/04 09:17:41;;;;;;;36.65;24.15;;;7.40;99.90;;;;;;5089826;28;20040;-89
2021/11/04 09:20:11;;;;;;;37.20;24.75;;;7.50;99.90;;;;;;5056373;28;20047;-89
2021/11/04 09:22:38;;;;;;;31.35;23.35;;;7.60;99.90;;;;;;5060711;28;20068;-89
2021/11/04 09:25:05;;;;;;;34.20;23.98;;;7.60;99.90;;;;;;5044745;28;20060;-89
2021/11/04 09:27:33;;;;;;;38.55;24.95;;;7.70;99.90;;;;;;5079658;28;20028;-89
2021/11/04 09:30:03;;;;;;;39.70;26.17;;;7.80;99.90;;;;;;5075015;28;20479;-90
2021/11/04 09:32:33;;;;;;;39.28;25.10;;;8.00;99.90;;;;;;5079828;28;20049;-89
2021/11/04 09:35:04;;;;;;;42.25;26.30;;;8.10;99.90;;;;;;5078956;28;20029;-89
2021/11/04 09:37:37;;;;;;;36.53;24.27;;;8.30;99.90;;;;;;5088077;28;20459;-90
2021/11/04 09:40:06;;;;;;;35.95;24.42;;;8.30;99.90;;;;;;5081293;28;20032;-89
2021/11/04 09:42:34;;;;;;;37.92;25.48;;;8.30;99.90;;;;;;5081133;28;20028;-89
2021/11/04 09:45:01;;;;;;;34.33;23.33;;;8.30;99.90;;;;;;5073782;28;20519;-89
2021/11/04 09:47:33;;;;;;;32.45;23.10;;;8.30;99.90;;;;;;5079095;28;20025;-89
2021/11/04 09:50:06;;;;;;;35.65;24.55;;;8.30;99.90;;;;;;5069377;28;20076;-89
2021/11/04 09:52:36;;;;;;;36.40;24.00;;;8.30;99.90;;;;;;5060731;28;20028;-88
2021/11/04 09:55:08;;;;;;;32.92;21.67;;;8.30;99.90;;;;;;5074445;28;20021;-89
2021/11/04 09:57:35;;;;;;;41.78;26.20;;;8.30;99.90;;;;;;5063225;28;20088;-88
2021/11/04 10:00:01;;;;;;;38.78;25.35;;;8.30;99.90;;;;;;5063650;28;20511;-89
2021/11/04 10:02:29;;;;;;;33.35;21.95;;;8.20;99.90;;;;;;5062620;28;20037;-89
2021/11/04 10:05:08;;;;;;;31.27;21.80;;;8.20;99.90;;;;;;5066686;28;20103;-89
2021/11/04 10:07:48;;;;;;;32.25;21.63;;;8.20;99.90;;;;;;5072281;28;20028;-89
2021/11/04 10:10:18;;;;;;;35.53;23.88;;;8.20;99.90;;;;;;5081149;28;20070;-89
2021/11/04 10:13:01;;;;;;;30.60;20.40;;;8.20;99.90;;;;;;5087775;28;20048;-89
2021/11/04 10:15:29;;;;;;;31.10;20.98;;;8.30;99.90;;;;;;5100028;28;20028;-89
2021/11/04 10:18:20;;;;;;;30.33;20.77;;;8.40;99.90;;;;;;5080337;28;20028;-89
2021/11/04 10:21:03;;;;;;;28.17;19.65;;;8.40;99.90;;;;;;5097000;28;20040;-89
2021/11/04 10:23:40;;;;;;;28.20;20.13;;;8.50;99.90;;;;;;5078781;28;20095;-88
2021/11/04 10:26:11;;;;;;;27.05;19.65;;;8.50;99.90;;;;;;5097685;28;20479;-88
2021/11/04 10:28:39;;;;;;;29.33;20.20;;;8.50;99.90;;;;;;5080455;28;20032;-88
2021/11/04 10:31:12;;;;;;;26.45;19.60;;;8.50;99.90;;;;;;5079897;28;20040;-88
2021/11/04 10:33:41;;;;;;;27.77;19.43;;;8.60;99.90;;;;;;5079404;28;20059;-88
2021/11/04 10:36:17;;;;;;;24.52;18.58;;;8.60;99.90;;;;;;5060171;28;20326;-89
2021/11/04 10:38:51;;;;;;;29.88;21.25;;;8.80;99.90;;;;;;5060938;28;20079;-89
2021/11/04 10:41:29;;;;;;;28.85;22.25;;;8.80;99.90;;;;;;5062083;28;20527;-88
2021/11/04 10:44:06;;;;;;;25.08;19.75;;;8.90;99.90;;;;;;5060806;28;20103;-88
2021/11/04 10:46:41;;;;;;;29.20;21.02;;;8.90;99.90;;;;;;5087318;28;20028;-88
2021/11/04 10:49:08;;;;;;;26.98;20.17;;;8.80;99.90;;;;;;5075541;28;20147;-88
2021/11/04 10:51:34;;;;;;;22.17;17.40;;;8.80;99.90;;;;;;5058979;28;20041;-88
2021/11/04 10:54:15;;;;;;;24.05;18.73;;;8.80;99.90;;;;;;5060321;28;20039;-88
2021/11/04 10:56:44;;;;;;;23.48;18.45;;;8.90;99.90;;;;;;5071898;28;20035;-88
2021/11/04 10:59:13;;;;;;;23.27;18.38;;;8.80;99.90;;;;;;5081790;28;20071;-89
2021/11/04 11:01:54;;;;;;;21.88;17.33;;;8.80;99.90;;;;;;5059168;28;20036;-88
2021/11/04 11:04:31;;;;;;;23.35;18.98;;;8.80;99.90;;;;;;5058999;28;20067;-88
2021/11/04 11:06:57;;;;;;;27.55;20.75;;;8.70;99.90;;;;;;5058037;28;20028;-88
2021/11/04 11:09:26;;;;;;;24.95;20.23;;;8.70;99.90;;;;;;5059162;28;20051;-89
2021/11/04 11:12:00;;;;;;;21.90;17.45;;;8.80;99.90;;;;;;5076710;28;20032;-88
2021/11/04 11:14:27;;;;;;;21.40;17.42;;;8.80;99.90;;;;;;5057774;28;20029;-88
2021/11/04 11:16:58;;;;;;;31.02;21.13;;;8.90;99.90;;;;;;5057503;28;20384;-88
2021/11/04 11:19:29;;;;;;;27.83;20.45;;;8.90;99.90;;;;;;5058343;28;20091;-89
2021/11/04 11:21:58;;;;;;;26.58;21.10;;;8.90;99.90;;;;;;5058293;28;20051;-87
2021/11/04 11:24:44;;;;;;;26.83;21.42;;;8.90;99.90;;;;;;5062679;28;20534;-88
2021/11/04 11:27:12;;;;;;;26.83;19.63;;;9.00;99.90;;;;;;5077844;28;20380;-88
2021/11/04 11:29:42;;;;;;;23.63;17.83;;;9.00;99.90;;;;;;5057249;28;20036;-88
2021/11/04 11:32:26;;;;;;;22.00;16.70;;;9.00;99.90;;;;;;5058191;28;20127;-88
2021/11/04 11:35:10;;;;;;;;;;;9.10;99.90;;;;;;5061898;28;20041;-88
2021/11/04 11:37:36;;;;;;;;;;;9.20;99.90;;;;;;5061824;28;19975;-89
2021/11/04 11:40:11;;;;;;;18.80;14.70;;;9.20;99.90;;;;;;5061701;28;19905;-88
2021/11/04 11:42:53;;;;;;;19.98;14.57;;;9.30;99.90;;;;;;5062194;28;20048;-88
2021/11/04 11:45:22;;;;;;;20.88;14.77;;;9.30;99.90;;;;;;5059673;28;20033;-88
2021/11/04 11:47:49;;;;;;;16.58;13.38;;;9.40;99.90;;;;;;5059639;28;20021;-89
2021/11/04 11:50:15;;;;;;;16.50;13.82;;;9.40;99.90;;;;;;5059731;28;20052;-89
2021/11/04 11:52:43;;;;;;;17.23;13.30;;;9.40;99.90;;;;;;5060083;28;20048;-88
2021/11/04 11:55:14;;;;;;;20.35;15.30;;;9.40;99.90;;;;;;5060339;28;20052;-88
2021/11/04 11:57:41;;;;;;;17.27;12.93;;;9.40;99.90;;;;;;5042431;28;20094;-88
2021/11/04 12:00:11;;;;;;;16.15;13.15;;;9.40;99.90;;;;;;5061528;28;20191;-89
2021/11/04 12:02:54;;;;;;;17.40;13.90;;;9.40;99.90;;;;;;5061561;28;20040;-88
2021/11/04 12:05:28;;;;;;;16.08;13.38;;;9.50;99.90;;;;;;5057430;28;20052;-88
2021/11/04 12:08:15;;;;;;;16.17;13.30;;;9.60;99.90;;;;;;5060090;28;20064;-88
2021/11/04 12:10:44;;;;;;;18.55;14.30;;;9.70;99.90;;;;;;5076677;28;20082;-89
2021/11/04 12:13:45;;;;;;;17.10;13.65;;;9.60;99.90;;;;;;5069882;28;20043;-88
2021/11/04 12:16:23;;;;;;;15.48;12.65;;;9.70;99.90;;;;;;5070394;28;20058;-88
2021/11/04 12:18:55;;;;;;;17.33;12.30;;;9.70;99.90;;;;;;5081934;28;20128;-88
2021/11/04 12:21:34;;;;;;;16.83;12.95;;;9.80;99.90;;;;;;5082131;28;20028;-88
2021/11/04 12:24:04;;;;;;;19.60;13.88;;;10.00;99.90;;;;;;5081414;28;20044;-89
2021/11/04 12:26:42;;;;;;;19.75;15.05;;;10.30;99.90;;;;;;5079322;28;20032;-88
2021/11/04 12:29:13;;;;;;;17.10;14.15;;;10.50;99.90;;;;;;5079598;28;20048;-88
2021/11/04 12:31:48;;;;;;;17.65;14.15;;;10.60;99.90;;;;;;5098999;28;20051;-87
2021/11/04 12:34:23;;;;;;;18.77;15.37;;;10.70;99.90;;;;;;5072101;28;20033;-88
2021/11/04 12:36:49;;;;;;;20.83;15.90;;;10.60;99.90;;;;;;5074164;28;20055;-88
2021/11/04 12:39:28;;;;;;;18.65;15.40;;;10.50;99.90;;;;;;5081252;28;20099;-88
2021/11/04 12:42:02;;;;;;;18.95;16.05;;;10.40;99.90;;;;;;5080694;28;20047;-87
2021/11/04 12:44:34;;;;;;;20.42;15.85;;;10.30;99.90;;;;;;5067654;28;20040;-88
2021/11/04 12:47:02;;;;;;;23.35;16.42;;;10.20;99.90;;;;;;5078526;28;20028;-88
2021/11/04 12:49:31;;;;;;;20.20;16.00;;;10.30;99.90;;;;;;5102692;28;20031;-88
2021/11/04 12:51:59;;;;;;;18.40;15.82;;;10.20;99.90;;;;;;5084087;28;20035;-89